sensor_id;sensor_type;location;lat;lon;timestamp;temperature;humidity
14741;DHT22;7462;53.530;9.414;2022-12-29T00:00:14;8.40;99.90
14741;DHT22;7462;53.530;9.414;2022-12-29T00:02:42;8.40;99.90
14741;DHT22;7462;53.530;9.414;2022-12-29T00:05:12;8.40;99.90
14741;DHT22;7462;53.530;9.414;2022-12-29T00:07:40;8.40;99.90
14741;DHT22;7462;53.530;9.414;2022-12-29T00:10:08;8.50;99.90
14741;DHT22;7462;53.530;9.414;2022-12-29T00:12:36;8.50;99.90
14741;DHT22;7462;53.530;9.414;2022-12-29T00:15:21;8.50;99.90
14741;DHT22;7462;53.530;9.414;2022-12-29T00:18:05;8.50;99.90
14741;DHT22;7462;53.530;9.414;2022-12-29T00:20:35;8.50;99.90
14741;DHT22;7462;53.530;9.414;2022-12-29T00:23:20;8.60;99.90
14741;DHT22;7462;53.530;9.414;2022-12-29T00:26:12;8.60;99.90
14741;DHT22;7462;53.530;9.414;2022-12-29T00:28:59;8.60;99.90
14741;DHT22;7462;53.530;9.414;2022-12-29T00:31:44;8.60;99.90
14741;DHT22;7462;53.530;9.414;2022-12-29T00:34:30;8.70;99.90
14741;DHT22;7462;53.530;9.414;2022-12-29T00:37:17;8.70;99.90
14741;DHT22;7462;53.530;9.414;2022-12-29T00:40:05;8.70;99.90
14741;DHT22;7462;53.530;9.414;2022-12-29T00:42:56;8.70;99.90
14741;DHT22;7462;53.530;9.414;2022-12-29T00:45:42;8.60;99.90
14741;DHT22;7462;53.530;9.414;2022-12-29T00:48:11;8.60;99.90
14741;DHT22;7462;53.530;9.414;2022-12-29T00:50:39;8.60;99.90
14741;DHT22;7462;53.530;9.414;2022-12-29T00:53:08;8.60;99.90
14741;DHT22;7462;53.530;9.414;2022-12-29T00:55:36;8.60;99.90
14741;DHT22;7462;53.530;9.414;2022-12-29T00:58:05;8.70;99.90
14741;DHT22;7462;53.530;9.414;2022-12-29T01:00:33;8.70;99.90
14741;DHT22;7462;53.530;9.414;2022-12-29T01:03:01;8.60;99.90
14741;DHT22;7462;53.530;9.414;2022-12-29T01:05:29;8.70;99.90
14741;DHT22;7462;53.530;9.414;2022-12-29T01:07:57;8.70;99.90
14741;DHT22;7462;53.530;9.414;2022-12-29T01:10:26;8.70;99.90
14741;DHT22;7462;53.530;9.414;2022-12-29T01:12:54;8.80;99.90
14741;DHT22;7462;53.530;9.414;2022-12-29T01:15:22;8.70;99.90
14741;DHT22;7462;53.530;9.414;2022-12-29T01:17:50;8.80;99.90
14741;DHT22;7462;53.530;9.414;2022-12-29T01:20:18;8.80;99.90
14741;DHT22;7462;53.530;9.414;2022-12-29T01:22:46;8.80;99.90
14741;DHT22;7462;53.530;9.414;2022-12-29T01:25:14;8.80;99.90
14741;DHT22;7462;53.530;9.414;2022-12-29T01:27:45;8.80;99.90
14741;DHT22;7462;53.530;9.414;2022-12-29T01:30:13;8.80;99.90
14741;DHT22;7462;53.530;9.414;2022-12-29T01:32:41;8.80;99.90
14741;DHT22;7462;53.530;9.414;2022-12-29T01:35:09;8.80;99.90
14741;DHT22;7462;53.530;9.414;2022-12-29T01:37:37;8.80;99.90
14741;DHT22;7462;53.530;9.414;2022-12-29T01:40:06;8.80;99.90
14741;DHT22;7462;53.530;9.414;2022-12-29T01:42:34;8.80;99.90
14741;DHT22;7462;53.530;9.414;2022-12-29T01:45:09;8.90;99.90
14741;DHT22;7462;53.530;9.414;2022-12-29T01:47:39;8.90;99.90
14741;DHT22;7462;53.530;9.414;2022-12-29T01:50:11;8.90;99.90
14741;DHT22;7462;53.530;9.414;2022-12-29T01:52:43;8.90;99.90
14741;DHT22;7462;53.530;9.414;2022-12-29T01:55:15;8.90;99.90
14741;DHT22;7462;53.530;9.414;2022-12-29T01:57:49;8.90;99.90
14741;DHT22;7462;53.530;9.414;2022-12-29T02:00:21;8.90;99.90
14741;DHT22;7462;53.530;9.414;2022-12-29T02:02:51;8.90;99.90
14741;DHT22;7462;53.530;9.414;2022-12-29T02:05:25;8.90;99.90
14741;DHT22;7462;53.530;9.414;2022-12-29T02:07:55;8.90;99.90
14741;DHT22;7462;53.530;9.414;2022-12-29T02:10:25;8.90;99.90
14741;DHT22;7462;53.530;9.414;2022-12-29T02:12:55;8.90;99.90
14741;DHT22;7462;53.530;9.414;2022-12-29T02:15:34;9.00;99.90
14741;DHT22;7462;53.530;9.414;2022-12-29T02:18:18;9.00;99.90
14741;DHT22;7462;53.530;9.414;2022-12-29T02:24:11;9.00;99.90
14741;DHT22;7462;53.530;9.414;2022-12-29T02:27:06;9.00;99.90
14741;DHT22;7462;53.530;9.414;2022-12-29T02:30:04;9.10;99.90
14741;DHT22;7462;53.530;9.414;2022-12-29T02:32:41;9.10;99.90
14741;DHT22;7462;53.530;9.414;2022-12-29T02:35:23;9.10;99.90
14741;DHT22;7462;53.530;9.414;2022-12-29T02:38:00;9.10;99.90
14741;DHT22;7462;53.530;9.414;2022-12-29T02:40:37;9.10;99.90
14741;DHT22;7462;53.530;9.414;2022-12-29T02:43:14;9.20;99.90
14741;DHT22;7462;53.530;9.414;2022-12-29T02:45:52;9.20;99.90
14741;DHT22;7462;53.530;9.414;2022-12-29T02:48:25;9.20;99.90
14741;DHT22;7462;53.530;9.414;2022-12-29T02:51:00;9.20;99.90
14741;DHT22;7462;53.530;9.414;2022-12-29T02:53:31;9.20;99.90
14741;DHT22;7462;53.530;9.414;2022-12-29T02:56:18;9.20;99.90
14741;DHT22;7462;53.530;9.414;2022-12-29T02:58:46;9.30;99.90
14741;DHT22;7462;53.530;9.414;2022-12-29T03:01:35;9.30;99.90
14741;DHT22;7462;53.530;9.414;2022-12-29T03:04:22;9.30;99.90
14741;DHT22;7462;53.530;9.414;2022-12-29T03:07:06;9.30;99.90
14741;DHT22;7462;53.530;9.414;2022-12-29T03:09:46;9.40;99.90
14741;DHT22;7462;53.530;9.414;2022-12-29T03:12:26;9.30;99.90
14741;DHT22;7462;53.530;9.414;2022-12-29T03:15:18;9.40;99.90
14741;DHT22;7462;53.530;9.414;2022-12-29T03:18:13;9.40;99.90
14741;DHT22;7462;53.530;9.414;2022-12-29T03:20:51;9.40;99.90
14741;DHT22;7462;53.530;9.414;2022-12-29T03:23:22;9.40;99.90
14741;DHT22;7462;53.530;9.414;2022-12-29T03:25:56;9.40;99.90
14741;DHT22;7462;53.530;9.414;2022-12-29T03:28:28;9.40;99.90
14741;DHT22;7462;53.530;9.414;2022-12-29T03:30:58;9.40;99.90
14741;DHT22;7462;53.530;9.414;2022-12-29T03:33:28;9.40;99.90
14741;DHT22;7462;53.530;9.414;2022-12-29T03:36:04;9.50;99.90
14741;DHT22;7462;53.530;9.414;2022-12-29T03:38:35;9.50;99.90
14741;DHT22;7462;53.530;9.414;2022-12-29T03:41:10;9.50;99.90
14741;DHT22;7462;53.530;9.414;2022-12-29T03:43:39;9.50;99.90
14741;DHT22;7462;53.530;9.414;2022-12-29T03:46:07;9.50;99.90
14741;DHT22;7462;53.530;9.414;2022-12-29T03:48:37;9.50;99.90
14741;DHT22;7462;53.530;9.414;2022-12-29T03:51:07;9.60;99.90
14741;DHT22;7462;53.530;9.414;2022-12-29T03:53:36;9.60;99.90
14741;DHT22;7462;53.530;9.414;2022-12-29T03:56:04;9.60;99.90
14741;DHT22;7462;53.530;9.414;2022-12-29T03:58:33;9.60;99.90
14741;DHT22;7462;53.530;9.414;2022-12-29T04:01:07;9.60;99.90
14741;DHT22;7462;53.530;9.414;2022-12-29T04:03:37;9.60;99.90
14741;DHT22;7462;53.530;9.414;2022-12-29T04:06:08;9.60;99.90
14741;DHT22;7462;53.530;9.414;2022-12-29T04:08:49;9.60;99.90
14741;DHT22;7462;53.530;9.414;2022-12-29T04:11:17;9.60;99.90
14741;DHT22;7462;53.530;9.414;2022-12-29T04:13:45;9.60;99.90
14741;DHT22;7462;53.530;9.414;2022-12-29T04:16:17;9.60;99.90
14741;DHT22;7462;53.530;9.414;2022-12-29T04:18:46;9.60;99.90
14741;DHT22;7462;53.530;9.414;2022-12-29T04:21:16;9.60;99.90
14741;DHT22;7462;53.530;9.414;2022-12-29T04:23:44;9.60;99.90
14741;DHT22;7462;53.530;9.414;2022-12-29T04:26:13;9.70;99.90
14741;DHT22;7462;53.530;9.414;2022-12-29T04:29:08;9.70;99.90
14741;DHT22;7462;53.530;9.414;2022-12-29T04:31:47;9.70;99.90
14741;DHT22;7462;53.530;9.414;2022-12-29T04:34:16;9.70;99.90
14741;DHT22;7462;53.530;9.414;2022-12-29T04:36:47;9.80;99.90
14741;DHT22;7462;53.530;9.414;2022-12-29T04:39:16;9.80;99.90
14741;DHT22;7462;53.530;9.414;2022-12-29T04:41:44;9.80;99.90
14741;DHT22;7462;53.530;9.414;2022-12-29T04:44:17;9.80;99.90
14741;DHT22;7462;53.530;9.414;2022-12-29T04:47:05;9.80;99.90
14741;DHT22;7462;53.530;9.414;2022-12-29T04:50:02;9.70;99.90
14741;DHT22;7462;53.530;9.414;2022-12-29T04:52:40;9.80;99.90
14741;DHT22;7462;53.530;9.414;2022-12-29T04:55:10;9.80;99.90
14741;DHT22;7462;53.530;9.414;2022-12-29T04:57:39;9.80;99.90
14741;DHT22;7462;53.530;9.414;2022-12-29T05:00:11;9.80;99.90
14741;DHT22;7462;53.530;9.414;2022-12-29T05:02:40;9.80;99.90
14741;DHT22;7462;53.530;9.414;2022-12-29T05:05:09;9.80;99.90
14741;DHT22;7462;53.530;9.414;2022-12-29T05:07:42;9.80;99.90
14741;DHT22;7462;53.530;9.414;2022-12-29T05:10:10;9.80;99.90
14741;DHT22;7462;53.530;9.414;2022-12-29T05:12:40;9.80;99.90
14741;DHT22;7462;53.530;9.414;2022-12-29T05:15:09;9.80;99.90
14741;DHT22;7462;53.530;9.414;2022-12-29T05:17:37;9.80;99.90
14741;DHT22;7462;53.530;9.414;2022-12-29T05:20:08;9.90;99.90
14741;DHT22;7462;53.530;9.414;2022-12-29T05:22:36;9.90;99.90
14741;DHT22;7462;53.530;9.414;2022-12-29T05:25:08;9.90;99.90
14741;DHT22;7462;53.530;9.414;2022-12-29T05:27:49;9.90;99.90
14741;DHT22;7462;53.530;9.414;2022-12-29T05:30:23;9.90;99.90
14741;DHT22;7462;53.530;9.414;2022-12-29T05:32:51;9.90;99.90
14741;DHT22;7462;53.530;9.414;2022-12-29T05:35:19;9.90;99.90
14741;DHT22;7462;53.530;9.414;2022-12-29T05:37:47;9.90;99.90
14741;DHT22;7462;53.530;9.414;2022-12-29T05:40:17;9.90;99.90
14741;DHT22;7462;53.530;9.414;2022-12-29T05:42:46;9.90;99.90
14741;DHT22;7462;53.530;9.414;2022-12-29T05:45:28;9.90;99.90
14741;DHT22;7462;53.530;9.414;2022-12-29T05:48:11;9.90;99.90
14741;DHT22;7462;53.530;9.414;2022-12-29T05:51:01;9.90;99.90
14741;DHT22;7462;53.530;9.414;2022-12-29T05:53:39;9.80;99.90
14741;DHT22;7462;53.530;9.414;2022-12-29T05:56:08;9.90;99.90
14741;DHT22;7462;53.530;9.414;2022-12-29T05:58:37;9.90;99.90
14741;DHT22;7462;53.530;9.414;2022-12-29T06:01:05;9.90;99.90
14741;DHT22;7462;53.530;9.414;2022-12-29T06:03:33;9.90;99.90
14741;DHT22;7462;53.530;9.414;2022-12-29T06:06:02;9.90;99.90
14741;DHT22;7462;53.530;9.414;2022-12-29T06:08:30;10.00;99.90
14741;DHT22;7462;53.530;9.414;2022-12-29T06:10:58;9.90;99.90
14741;DHT22;7462;53.530;9.414;2022-12-29T06:13:28;10.00;99.90
14741;DHT22;7462;53.530;9.414;2022-12-29T06:15:56;10.00;99.90
14741;DHT22;7462;53.530;9.414;2022-12-29T06:18:26;10.00;99.90
14741;DHT22;7462;53.530;9.414;2022-12-29T06:20:59;9.90;99.90
14741;DHT22;7462;53.530;9.414;2022-12-29T06:23:28;9.90;99.90
14741;DHT22;7462;53.530;9.414;2022-12-29T06:25:56;10.00;99.90
14741;DHT22;7462;53.530;9.414;2022-12-29T06:28:24;9.90;99.90
14741;DHT22;7462;53.530;9.414;2022-12-29T06:30:53;10.00;99.90
14741;DHT22;7462;53.530;9.414;2022-12-29T06:33:21;10.00;99.90
14741;DHT22;7462;53.530;9.414;2022-12-29T06:35:50;10.00;99.90
14741;DHT22;7462;53.530;9.414;2022-12-29T06:38:18;10.00;99.90
14741;DHT22;7462;53.530;9.414;2022-12-29T06:40:46;9.90;99.90
14741;DHT22;7462;53.530;9.414;2022-12-29T06:43:19;9.90;99.90
14741;DHT22;7462;53.530;9.414;2022-12-29T06:46:21;9.90;99.90
14741;DHT22;7462;53.530;9.414;2022-12-29T06:48:49;9.80;99.90
14741;DHT22;7462;53.530;9.414;2022-12-29T06:51:17;9.80;99.90
14741;DHT22;7462;53.530;9.414;2022-12-29T06:53:45;9.80;99.90
14741;DHT22;7462;53.530;9.414;2022-12-29T06:56:13;9.80;99.90
14741;DHT22;7462;53.530;9.414;2022-12-29T06:58:41;9.80;99.90
14741;DHT22;7462;53.530;9.414;2022-12-29T07:01:09;9.80;99.90
14741;DHT22;7462;53.530;9.414;2022-12-29T07:03:41;9.70;99.90
14741;DHT22;7462;53.530;9.414;2022-12-29T07:06:09;9.70;99.90
14741;DHT22;7462;53.530;9.414;2022-12-29T07:08:37;9.70;99.90
14741;DHT22;7462;53.530;9.414;2022-12-29T07:11:05;9.70;99.90
14741;DHT22;7462;53.530;9.414;2022-12-29T07:13:33;9.80;99.90
14741;DHT22;7462;53.530;9.414;2022-12-29T07:16:05;9.80;99.90
14741;DHT22;7462;53.530;9.414;2022-12-29T07:18:33;9.80;99.90
14741;DHT22;7462;53.530;9.414;2022-12-29T07:21:03;9.80;99.90
14741;DHT22;7462;53.530;9.414;2022-12-29T07:23:31;9.80;99.90
14741;DHT22;7462;53.530;9.414;2022-12-29T07:26:00;9.70;99.90
14741;DHT22;7462;53.530;9.414;2022-12-29T07:28:29;9.70;99.90
14741;DHT22;7462;53.530;9.414;2022-12-29T07:30:57;9.70;99.90
14741;DHT22;7462;53.530;9.414;2022-12-29T07:33:25;9.70;99.90
14741;DHT22;7462;53.530;9.414;2022-12-29T07:35:53;9.70;99.90
14741;DHT22;7462;53.530;9.414;2022-12-29T07:38:22;9.70;99.90
14741;DHT22;7462;53.530;9.414;2022-12-29T07:40:50;9.70;99.90
14741;DHT22;7462;53.530;9.414;2022-12-29T07:43:19;9.70;99.90
14741;DHT22;7462;53.530;9.414;2022-12-29T07:46:04;9.70;99.90
14741;DHT22;7462;53.530;9.414;2022-12-29T07:48:32;9.60;99.90
14741;DHT22;7462;53.530;9.414;2022-12-29T07:51:02;9.60;99.90
14741;DHT22;7462;53.530;9.414;2022-12-29T07:53:32;9.70;99.90
14741;DHT22;7462;53.530;9.414;2022-12-29T07:56:00;9.70;99.90
14741;DHT22;7462;53.530;9.414;2022-12-29T07:58:28;9.70;99.90
14741;DHT22;7462;53.530;9.414;2022-12-29T08:00:56;9.70;99.90
14741;DHT22;7462;53.530;9.414;2022-12-29T08:03:24;9.70;99.90
14741;DHT22;7462;53.530;9.414;2022-12-29T08:05:53;9.70;99.90
14741;DHT22;7462;53.530;9.414;2022-12-29T08:08:21;9.70;99.90
14741;DHT22;7462;53.530;9.414;2022-12-29T08:10:50;9.70;99.90
14741;DHT22;7462;53.530;9.414;2022-12-29T08:13:18;9.70;99.90
14741;DHT22;7462;53.530;9.414;2022-12-29T08:15:46;9.80;99.90
14741;DHT22;7462;53.530;9.414;2022-12-29T08:18:14;9.80;99.90
14741;DHT22;7462;53.530;9.414;2022-12-29T08:20:42;9.90;99.90
14741;DHT22;7462;53.530;9.414;2022-12-29T08:23:10;9.90;99.90
14741;DHT22;7462;53.530;9.414;2022-12-29T08:25:38;9.90;99.90
14741;DHT22;7462;53.530;9.414;2022-12-29T08:28:08;9.90;99.90
14741;DHT22;7462;53.530;9.414;2022-12-29T08:30:36;9.90;99.90
14741;DHT22;7462;53.530;9.414;2022-12-29T08:33:04;9.90;99.90
14741;DHT22;7462;53.530;9.414;2022-12-29T08:35:32;10.00;99.90
14741;DHT22;7462;53.530;9.414;2022-12-29T08:38:00;10.00;99.90
14741;DHT22;7462;53.530;9.414;2022-12-29T08:40:28;10.00;99.90
14741;DHT22;7462;53.530;9.414;2022-12-29T08:42:56;10.00;99.90
14741;DHT22;7462;53.530;9.414;2022-12-29T08:45:25;10.00;99.90
14741;DHT22;7462;53.530;9.414;2022-12-29T08:47:53;10.00;99.90
14741;DHT22;7462;53.530;9.414;2022-12-29T08:50:21;10.10;99.90
14741;DHT22;7462;53.530;9.414;2022-12-29T08:52:50;10.10;99.90
14741;DHT22;7462;53.530;9.414;2022-12-29T08:55:18;10.10;99.90
14741;DHT22;7462;53.530;9.414;2022-12-29T08:57:46;10.20;99.90
14741;DHT22;7462;53.530;9.414;2022-12-29T09:00:18;10.10;99.90
14741;DHT22;7462;53.530;9.414;2022-12-29T09:02:49;10.20;99.90
14741;DHT22;7462;53.530;9.414;2022-12-29T09:05:17;10.20;99.90
14741;DHT22;7462;53.530;9.414;2022-12-29T09:07:45;10.20;99.90
14741;DHT22;7462;53.530;9.414;2022-12-29T09:10:13;10.20;99.90
14741;DHT22;7462;53.530;9.414;2022-12-29T09:12:41;10.30;99.90
14741;DHT22;7462;53.530;9.414;2022-12-29T09:15:09;10.30;99.90
14741;DHT22;7462;53.530;9.414;2022-12-29T09:17:38;10.30;99.90
14741;DHT22;7462;53.530;9.414;2022-12-29T09:20:13;10.30;99.90
14741;DHT22;7462;53.530;9.414;2022-12-29T09:22:41;10.30;99.90
14741;DHT22;7462;53.530;9.414;2022-12-29T09:25:10;10.30;99.90
14741;DHT22;7462;53.530;9.414;2022-12-29T09:27:38;10.30;99.90
14741;DHT22;7462;53.530;9.414;2022-12-29T09:30:08;10.30;99.90
14741;DHT22;7462;53.530;9.414;2022-12-29T09:32:37;10.30;99.90
14741;DHT22;7462;53.530;9.414;2022-12-29T09:35:12;10.30;99.90
14741;DHT22;7462;53.530;9.414;2022-12-29T09:37:40;10.30;99.90
14741;DHT22;7462;53.530;9.414;2022-12-29T09:40:28;10.30;99.90
14741;DHT22;7462;53.530;9.414;2022-12-29T09:46:10;10.20;99.90
14741;DHT22;7462;53.530;9.414;2022-12-29T09:48:45;10.20;99.90
14741;DHT22;7462;53.530;9.414;2022-12-29T09:51:21;10.20;99.90
14741;DHT22;7462;53.530;9.414;2022-12-29T09:53:53;10.20;99.90
14741;DHT22;7462;53.530;9.414;2022-12-29T09:56:25;10.20;99.90
14741;DHT22;7462;53.530;9.414;2022-12-29T09:58:58;10.20;99.90
14741;DHT22;7462;53.530;9.414;2022-12-29T10:01:30;10.20;99.90
14741;DHT22;7462;53.530;9.414;2022-12-29T10:04:00;10.20;99.90
14741;DHT22;7462;53.530;9.414;2022-12-29T10:06:37;10.20;99.90
14741;DHT22;7462;53.530;9.414;2022-12-29T10:09:33;10.20;99.90
14741;DHT22;7462;53.530;9.414;2022-12-29T10:12:10;10.20;99.90
14741;DHT22;7462;53.530;9.414;2022-12-29T10:14:55;10.30;99.90
14741;DHT22;7462;53.530;9.414;2022-12-29T10:17:29;10.20;99.90
14741;DHT22;7462;53.530;9.414;2022-12-29T10:20:23;10.20;99.90
14741;DHT22;7462;53.530;9.414;2022-12-29T10:23:18;10.20;99.90
14741;DHT22;7462;53.530;9.414;2022-12-29T10:25:51;10.20;99.90
14741;DHT22;7462;53.530;9.414;2022-12-29T10:28:23;10.20;99.90
14741;DHT22;7462;53.530;9.414;2022-12-29T10:30:53;10.20;99.90
14741;DHT22;7462;53.530;9.414;2022-12-29T10:33:24;10.20;99.90
14741;DHT22;7462;53.530;9.414;2022-12-29T10:35:53;10.30;99.90
14741;DHT22;7462;53.530;9.414;2022-12-29T10:38:27;10.30;99.90
14741;DHT22;7462;53.530;9.414;2022-12-29T10:41:00;10.40;99.90
14741;DHT22;7462;53.530;9.414;2022-12-29T10:43:30;10.40;99.90
14741;DHT22;7462;53.530;9.414;2022-12-29T10:46:02;10.60;99.90
14741;DHT22;7462;53.530;9.414;2022-12-29T10:48:32;10.60;99.90
14741;DHT22;7462;53.530;9.414;2022-12-29T10:51:03;10.50;99.90
14741;DHT22;7462;53.530;9.414;2022-12-29T10:53:38;10.50;99.90
14741;DHT22;7462;53.530;9.414;2022-12-29T10:56:15;10.50;99.90
14741;DHT22;7462;53.530;9.414;2022-12-29T10:58:49;10.60;99.90
14741;DHT22;7462;53.530;9.414;2022-12-29T11:01:18;10.50;99.90
14741;DHT22;7462;53.530;9.414;2022-12-29T11:04:02;10.40;99.90
14741;DHT22;7462;53.530;9.414;2022-12-29T11:06:31;10.40;99.90
14741;DHT22;7462;53.530;9.414;2022-12-29T11:09:09;10.50;99.90
14741;DHT22;7462;53.530;9.414;2022-12-29T11:11:40;10.50;99.90
14741;DHT22;7462;53.530;9.414;2022-12-29T11:14:12;10.50;99.90
14741;DHT22;7462;53.530;9.414;2022-12-29T11:16:41;10.50;99.90
14741;DHT22;7462;53.530;9.414;2022-12-29T11:19:21;10.50;99.90
14741;DHT22;7462;53.530;9.414;2022-12-29T11:21:51;10.60;99.90
14741;DHT22;7462;53.530;9.414;2022-12-29T11:24:22;10.70;99.90
14741;DHT22;7462;53.530;9.414;2022-12-29T11:26:52;10.70;99.90
14741;DHT22;7462;53.530;9.414;2022-12-29T11:29:27;10.50;99.90
14741;DHT22;7462;53.530;9.414;2022-12-29T11:31:56;10.40;99.90
14741;DHT22;7462;53.530;9.414;2022-12-29T11:34:30;10.40;99.90
14741;DHT22;7462;53.530;9.414;2022-12-29T11:37:02;10.40;99.90
14741;DHT22;7462;53.530;9.414;2022-12-29T11:39:36;10.40;99.90
14741;DHT22;7462;53.530;9.414;2022-12-29T11:42:11;10.50;99.90
14741;DHT22;7462;53.530;9.414;2022-12-29T11:44:43;10.50;99.90
14741;DHT22;7462;53.530;9.414;2022-12-29T11:47:19;10.40;99.90
14741;DHT22;7462;53.530;9.414;2022-12-29T11:49:50;10.50;99.90
14741;DHT22;7462;53.530;9.414;2022-12-29T11:52:27;10.40;99.90
14741;DHT22;7462;53.530;9.414;2022-12-29T11:54:57;10.30;99.90
14741;DHT22;7462;53.530;9.414;2022-12-29T11:57:27;10.20;99.90
14741;DHT22;7462;53.530;9.414;2022-12-29T11:59:56;10.20;99.90
14741;DHT22;7462;53.530;9.414;2022-12-29T12:02:40;10.20;99.90
14741;DHT22;7462;53.530;9.414;2022-12-29T12:05:15;10.00;99.90
14741;DHT22;7462;53.530;9.414;2022-12-29T12:07:46;10.00;99.90
14741;DHT22;7462;53.530;9.414;2022-12-29T12:10:22;9.90;99.90
14741;DHT22;7462;53.530;9.414;2022-12-29T12:12:56;9.90;99.90
14741;DHT22;7462;53.530;9.414;2022-12-29T12:15:31;9.80;99.90
14741;DHT22;7462;53.530;9.414;2022-12-29T12:18:14;9.80;99.90
14741;DHT22;7462;53.530;9.414;2022-12-29T12:20:46;9.80;99.90
14741;DHT22;7462;53.530;9.414;2022-12-29T12:23:32;9.80;99.90
14741;DHT22;7462;53.530;9.414;2022-12-29T12:26:11;9.80;99.90
14741;DHT22;7462;53.530;9.414;2022-12-29T12:28:46;9.80;99.90
14741;DHT22;7462;53.530;9.414;2022-12-29T12:31:23;9.80;99.90
14741;DHT22;7462;53.530;9.414;2022-12-29T12:33:58;9.80;99.90
14741;DHT22;7462;53.530;9.414;2022-12-29T12:36:50;9.90;99.90
14741;DHT22;7462;53.530;9.414;2022-12-29T12:39:26;9.80;99.90
14741;DHT22;7462;53.530;9.414;2022-12-29T12:42:06;9.80;99.90
14741;DHT22;7462;53.530;9.414;2022-12-29T12:44:48;9.80;99.90
14741;DHT22;7462;53.530;9.414;2022-12-29T12:47:43;9.80;99.90
14741;DHT22;7462;53.530;9.414;2022-12-29T12:50:32;9.70;99.90
14741;DHT22;7462;53.530;9.414;2022-12-29T12:53:23;9.80;99.90
14741;DHT22;7462;53.530;9.414;2022-12-29T12:56:03;9.90;99.90
14741;DHT22;7462;53.530;9.414;2022-12-29T12:58:45;9.80;99.90
14741;DHT22;7462;53.530;9.414;2022-12-29T13:01:24;9.80;99.90
14741;DHT22;7462;53.530;9.414;2022-12-29T13:04:12;9.80;99.90
14741;DHT22;7462;53.530;9.414;2022-12-29T13:06:51;9.80;99.90
14741;DHT22;7462;53.530;9.414;2022-12-29T13:09:34;9.80;99.90
14741;DHT22;7462;53.530;9.414;2022-12-29T13:12:18;9.80;99.90
14741;DHT22;7462;53.530;9.414;2022-12-29T13:14:57;9.70;99.90
14741;DHT22;7462;53.530;9.414;2022-12-29T13:17:35;9.70;99.90
14741;DHT22;7462;53.530;9.414;2022-12-29T13:20:17;9.60;99.90
14741;DHT22;7462;53.530;9.414;2022-12-29T13:22:51;9.60;99.90
14741;DHT22;7462;53.530;9.414;2022-12-29T13:25:27;9.60;99.90
14741;DHT22;7462;53.530;9.414;2022-12-29T13:28:02;9.50;99.90
14741;DHT22;7462;53.530;9.414;2022-12-29T13:30:40;9.50;99.90
14741;DHT22;7462;53.530;9.414;2022-12-29T13:33:16;9.30;99.90
14741;DHT22;7462;53.530;9.414;2022-12-29T13:35:58;9.10;99.90
14741;DHT22;7462;53.530;9.414;2022-12-29T13:38:33;8.90;99.90
14741;DHT22;7462;53.530;9.414;2022-12-29T13:41:05;8.80;99.90
14741;DHT22;7462;53.530;9.414;2022-12-29T13:43:38;8.70;99.90
14741;DHT22;7462;53.530;9.414;2022-12-29T13:46:12;8.70;99.90
14741;DHT22;7462;53.530;9.414;2022-12-29T13:48:45;8.60;99.90
14741;DHT22;7462;53.530;9.414;2022-12-29T13:51:15;8.60;99.90
14741;DHT22;7462;53.530;9.414;2022-12-29T13:54:05;8.60;99.90
14741;DHT22;7462;53.530;9.414;2022-12-29T13:56:40;8.60;99.90
14741;DHT22;7462;53.530;9.414;2022-12-29T13:59:17;8.60;99.90
14741;DHT22;7462;53.530;9.414;2022-12-29T14:01:55;8.60;99.90
14741;DHT22;7462;53.530;9.414;2022-12-29T14:04:26;8.60;99.90
14741;DHT22;7462;53.530;9.414;2022-12-29T14:07:01;8.60;99.90
14741;DHT22;7462;53.530;9.414;2022-12-29T14:09:42;8.60;99.90
14741;DHT22;7462;53.530;9.414;2022-12-29T14:12:30;8.60;99.90
14741;DHT22;7462;53.530;9.414;2022-12-29T14:15:14;8.60;99.90
14741;DHT22;7462;53.530;9.414;2022-12-29T14:17:44;8.60;99.90
14741;DHT22;7462;53.530;9.414;2022-12-29T14:20:27;8.60;99.90
14741;DHT22;7462;53.530;9.414;2022-12-29T14:22:57;8.50;99.90
14741;DHT22;7462;53.530;9.414;2022-12-29T14:25:52;8.50;99.90
14741;DHT22;7462;53.530;9.414;2022-12-29T14:28:24;8.50;99.90
14741;DHT22;7462;53.530;9.414;2022-12-29T14:30:53;8.40;99.90
14741;DHT22;7462;53.530;9.414;2022-12-29T14:33:25;8.40;99.90
14741;DHT22;7462;53.530;9.414;2022-12-29T14:35:54;8.40;99.90
14741;DHT22;7462;53.530;9.414;2022-12-29T14:38:28;8.30;99.90
14741;DHT22;7462;53.530;9.414;2022-12-29T14:41:23;8.30;99.90
14741;DHT22;7462;53.530;9.414;2022-12-29T14:43:56;8.30;99.90
14741;DHT22;7462;53.530;9.414;2022-12-29T14:46:25;8.30;99.90
14741;DHT22;7462;53.530;9.414;2022-12-29T14:48:57;8.20;99.90
14741;DHT22;7462;53.530;9.414;2022-12-29T14:51:31;8.20;99.90
14741;DHT22;7462;53.530;9.414;2022-12-29T14:54:34;8.20;99.90
14741;DHT22;7462;53.530;9.414;2022-12-29T14:57:14;8.20;99.90
14741;DHT22;7462;53.530;9.414;2022-12-29T14:59:44;8.10;99.90
14741;DHT22;7462;53.530;9.414;2022-12-29T15:02:16;8.20;99.90
14741;DHT22;7462;53.530;9.414;2022-12-29T15:04:48;8.20;99.90
14741;DHT22;7462;53.530;9.414;2022-12-29T15:07:17;8.10;99.90
14741;DHT22;7462;53.530;9.414;2022-12-29T15:09:50;8.10;99.90
14741;DHT22;7462;53.530;9.414;2022-12-29T15:12:30;8.10;99.90
14741;DHT22;7462;53.530;9.414;2022-12-29T15:14:59;8.10;99.90
14741;DHT22;7462;53.530;9.414;2022-12-29T15:17:29;8.00;99.90
14741;DHT22;7462;53.530;9.414;2022-12-29T15:20:01;8.00;99.90
14741;DHT22;7462;53.530;9.414;2022-12-29T15:22:44;8.10;99.90
14741;DHT22;7462;53.530;9.414;2022-12-29T15:25:14;8.20;99.90
14741;DHT22;7462;53.530;9.414;2022-12-29T15:27:48;8.20;99.90
14741;DHT22;7462;53.530;9.414;2022-12-29T15:30:17;8.10;99.90
14741;DHT22;7462;53.530;9.414;2022-12-29T15:32:46;8.10;99.90
14741;DHT22;7462;53.530;9.414;2022-12-29T15:35:27;8.10;99.90
14741;DHT22;7462;53.530;9.414;2022-12-29T15:37:56;8.00;99.90
14741;DHT22;7462;53.530;9.414;2022-12-29T15:40:27;8.00;99.90
14741;DHT22;7462;53.530;9.414;2022-12-29T15:43:10;7.90;99.90
14741;DHT22;7462;53.530;9.414;2022-12-29T15:45:42;7.90;99.90
14741;DHT22;7462;53.530;9.414;2022-12-29T15:48:16;7.90;99.90
14741;DHT22;7462;53.530;9.414;2022-12-29T15:50:46;7.90;99.90
14741;DHT22;7462;53.530;9.414;2022-12-29T15:53:19;7.90;99.90
14741;DHT22;7462;53.530;9.414;2022-12-29T15:55:52;7.80;99.90
14741;DHT22;7462;53.530;9.414;2022-12-29T15:58:29;7.80;99.90
14741;DHT22;7462;53.530;9.414;2022-12-29T16:00:59;7.80;99.90
14741;DHT22;7462;53.530;9.414;2022-12-29T16:03:30;7.70;99.90
14741;DHT22;7462;53.530;9.414;2022-12-29T16:06:09;7.70;99.90
14741;DHT22;7462;53.530;9.414;2022-12-29T16:08:39;7.60;99.90
14741;DHT22;7462;53.530;9.414;2022-12-29T16:11:20;7.60;99.90
14741;DHT22;7462;53.530;9.414;2022-12-29T16:13:51;7.60;99.90
14741;DHT22;7462;53.530;9.414;2022-12-29T16:16:22;7.60;99.90
14741;DHT22;7462;53.530;9.414;2022-12-29T16:18:53;7.50;99.90
14741;DHT22;7462;53.530;9.414;2022-12-29T16:21:28;7.50;99.90
14741;DHT22;7462;53.530;9.414;2022-12-29T16:24:00;7.50;99.90
14741;DHT22;7462;53.530;9.414;2022-12-29T16:26:29;7.50;99.90
14741;DHT22;7462;53.530;9.414;2022-12-29T16:28:59;7.50;99.90
14741;DHT22;7462;53.530;9.414;2022-12-29T16:31:33;7.40;99.90
14741;DHT22;7462;53.530;9.414;2022-12-29T16:34:13;7.50;99.90
14741;DHT22;7462;53.530;9.414;2022-12-29T16:36:55;7.50;99.90
14741;DHT22;7462;53.530;9.414;2022-12-29T16:39:36;7.50;99.90
14741;DHT22;7462;53.530;9.414;2022-12-29T16:42:33;7.50;99.90
14741;DHT22;7462;53.530;9.414;2022-12-29T16:48:21;7.50;99.90